createdAt,value
2018-09-11T00:01:54.272Z,7.93
2018-09-11T00:04:23.064Z,10.27
2018-09-11T00:06:52.093Z,7.03
2018-09-11T00:09:20.765Z,9.03
2018-09-11T00:11:49.425Z,7.73
2018-09-11T00:14:18.211Z,7.73
2018-09-11T00:16:47.037Z,8.63
2018-09-11T00:19:15.746Z,8.20
2018-09-11T00:21:44.406Z,7.80
2018-09-11T00:24:13.135Z,7.53
2018-09-11T00:26:41.878Z,7.70
2018-09-11T00:29:10.582Z,8.23
2018-09-11T00:31:39.248Z,8.17
2018-09-11T00:34:08.052Z,7.47
2018-09-11T00:36:36.743Z,7.80
2018-09-11T00:39:06.228Z,8.90
2018-09-11T00:41:34.856Z,7.90
2018-09-11T00:44:03.625Z,7.70
2018-09-11T00:46:32.324Z,7.43
2018-09-11T00:49:00.990Z,8.97
2018-09-11T00:51:29.810Z,10.63
2018-09-11T00:53:58.455Z,11.67
2018-09-11T00:56:27.099Z,8.57
2018-09-11T00:58:55.746Z,9.53
2018-09-11T01:01:24.380Z,8.97
2018-09-11T01:03:53.066Z,9.73
2018-09-11T01:06:21.752Z,8.57
2018-09-11T01:08:50.466Z,8.60
2018-09-11T01:11:19.123Z,7.60
2018-09-11T01:13:47.762Z,8.27
2018-09-11T01:16:16.414Z,7.80
2018-09-11T01:18:45.063Z,8.47
2018-09-11T01:21:13.717Z,10.60
2018-09-11T01:23:42.350Z,7.83
2018-09-11T01:26:11.015Z,8.70
2018-09-11T01:28:39.659Z,9.33
2018-09-11T01:31:08.302Z,9.47
2018-09-11T01:33:37.007Z,9.90
2018-09-11T01:36:05.798Z,12.13
2018-09-11T01:38:34.547Z,11.60
2018-09-11T01:41:03.250Z,10.87
2018-09-11T01:43:31.914Z,10.23
2018-09-11T01:46:00.562Z,10.37
2018-09-11T01:48:29.167Z,10.20
2018-09-11T01:50:57.867Z,9.83
2018-09-11T01:53:26.517Z,9.33
2018-09-11T01:55:55.202Z,11.30
2018-09-11T01:58:23.827Z,10.63
2018-09-11T02:00:52.647Z,8.73
2018-09-11T02:03:21.271Z,9.87
2018-09-11T02:05:49.960Z,12.13
2018-09-11T02:08:18.587Z,11.53
2018-09-11T02:10:47.241Z,10.40
2018-09-11T02:13:15.917Z,10.70
2018-09-11T02:15:44.597Z,10.37
2018-09-11T02:18:13.242Z,10.57
2018-09-11T02:20:41.935Z,10.20
2018-09-11T02:23:10.614Z,10.63
2018-09-11T02:25:39.399Z,9.80
2018-09-11T02:28:08.074Z,13.03
2018-09-11T02:30:36.722Z,11.97
2018-09-11T02:33:05.490Z,13.90
2018-09-11T02:35:34.183Z,15.80
2018-09-11T02:38:02.794Z,12.50
2018-09-11T02:40:31.454Z,10.87
2018-09-11T02:43:00.084Z,9.30
2018-09-11T02:45:28.747Z,12.50
2018-09-11T02:47:57.477Z,12.63
2018-09-11T02:50:26.108Z,8.90
2018-09-11T02:52:54.851Z,10.70
2018-09-11T02:55:23.518Z,8.30
2018-09-11T02:57:52.234Z,9.73
2018-09-11T03:00:20.876Z,9.90
2018-09-11T03:02:49.555Z,8.60
2018-09-11T03:05:18.285Z,9.03
2018-09-11T03:07:46.937Z,8.30
2018-09-11T03:10:15.620Z,10.00
2018-09-11T03:12:44.278Z,13.43
2018-09-11T03:15:12.952Z,10.57
2018-09-11T03:17:41.617Z,8.80
2018-09-11T03:20:10.351Z,7.77
2018-09-11T03:22:38.991Z,9.50
2018-09-11T03:25:07.839Z,13.20
2018-09-11T03:27:36.447Z,11.10
2018-09-11T03:30:07.559Z,10.93
2018-09-11T03:32:36.230Z,8.63
2018-09-11T03:35:05.066Z,11.67
2018-09-11T03:37:33.741Z,10.43
2018-09-11T03:40:03.715Z,7.43
2018-09-11T03:42:32.362Z,10.87
2018-09-11T03:45:01.052Z,8.37
2018-09-11T03:47:29.860Z,7.67
2018-09-11T03:49:58.507Z,8.30
2018-09-11T03:52:27.324Z,10.13
2018-09-11T03:54:55.976Z,12.23
2018-09-11T03:57:24.619Z,10.43
2018-09-11T03:59:53.263Z,10.07
2018-09-11T04:02:21.940Z,10.97
2018-09-11T04:04:50.642Z,12.07
2018-09-11T04:07:19.376Z,12.77
2018-09-11T04:09:48.572Z,11.67
2018-09-11T04:12:17.589Z,10.03
2018-09-11T04:14:46.275Z,10.97
2018-09-11T04:17:15.007Z,12.57
2018-09-11T04:19:43.704Z,13.80
2018-09-11T04:22:12.403Z,11.67
2018-09-11T04:24:41.146Z,10.73
2018-09-11T04:27:09.867Z,8.03
2018-09-11T04:29:38.517Z,10.47
2018-09-11T04:32:07.203Z,9.63
2018-09-11T04:34:35.823Z,17.60
2018-09-11T04:37:04.477Z,13.40
2018-09-11T04:39:33.101Z,13.20
2018-09-11T04:42:01.815Z,13.43
2018-09-11T04:44:30.513Z,9.87
2018-09-11T04:46:59.148Z,11.30
2018-09-11T04:49:27.831Z,10.90
2018-09-11T04:51:56.498Z,12.43
2018-09-11T04:54:25.188Z,11.57
2018-09-11T04:56:54.007Z,13.63
2018-09-11T04:59:22.663Z,10.87
2018-09-11T05:01:51.370Z,12.50
2018-09-11T05:04:20.063Z,16.30
2018-09-11T05:06:48.739Z,12.73
2018-09-11T05:09:17.467Z,13.10
2018-09-11T05:11:46.223Z,15.50
2018-09-11T05:14:14.892Z,15.03
2018-09-11T05:16:43.542Z,15.10
2018-09-11T05:19:12.326Z,18.27
2018-09-11T05:21:40.923Z,14.43
2018-09-11T05:24:09.590Z,17.13
2018-09-11T05:26:38.293Z,18.77
2018-09-11T05:29:07.304Z,14.37
2018-09-11T05:31:35.934Z,15.67
2018-09-11T05:34:05.319Z,19.63
2018-09-11T05:36:34.047Z,14.73
2018-09-11T05:39:02.794Z,18.83
2018-09-11T05:41:31.433Z,18.33
2018-09-11T05:44:00.123Z,17.23
2018-09-11T05:46:28.811Z,16.80
2018-09-11T05:48:57.485Z,20.73
2018-09-11T05:51:26.238Z,18.93
2018-09-11T05:53:55.332Z,19.43
2018-09-11T05:56:23.997Z,16.23
2018-09-11T05:58:52.701Z,19.10
2018-09-11T06:01:22.044Z,20.50
2018-09-11T06:03:50.646Z,16.33
2018-09-11T06:06:19.302Z,19.00
2018-09-11T06:08:48.096Z,17.80
2018-09-11T06:11:16.803Z,24.93
2018-09-11T06:13:45.566Z,25.17
2018-09-11T06:16:14.385Z,25.00
2018-09-11T06:18:43.067Z,23.23
2018-09-11T06:21:11.791Z,16.10
2018-09-11T06:23:40.587Z,22.80
2018-09-11T06:26:09.268Z,25.80
2018-09-11T06:28:37.917Z,21.83
2018-09-11T06:31:07.062Z,19.97
2018-09-11T06:33:35.748Z,15.00
2018-09-11T06:36:04.470Z,16.37
2018-09-11T06:38:33.168Z,11.40
2018-09-11T06:41:01.880Z,13.47
2018-09-11T06:43:30.524Z,17.70
2018-09-11T06:45:59.298Z,11.40
2018-09-11T06:48:27.975Z,11.30
2018-09-11T06:50:56.729Z,17.60
2018-09-11T06:53:25.506Z,12.17
2018-09-11T06:55:54.200Z,10.70
2018-09-11T06:58:22.822Z,14.27
2018-09-11T07:00:51.487Z,13.77
2018-09-11T07:03:20.135Z,10.97
2018-09-11T07:05:48.753Z,13.83
2018-09-11T07:08:17.566Z,11.33
2018-09-11T07:10:46.319Z,11.20
2018-09-11T07:13:15.082Z,11.97
2018-09-11T07:15:43.755Z,11.27
2018-09-11T07:18:12.430Z,8.23
2018-09-11T07:20:41.075Z,12.83
2018-09-11T07:23:09.850Z,10.33
2018-09-11T07:25:38.525Z,14.27
2018-09-11T07:28:07.198Z,12.80
2018-09-11T07:30:35.875Z,9.27
2018-09-11T07:33:04.611Z,12.40
2018-09-11T07:35:33.249Z,8.80
2018-09-11T07:38:01.911Z,9.53
2018-09-11T07:40:30.628Z,8.40
2018-09-11T07:42:59.298Z,9.30
2018-09-11T07:45:28.125Z,8.20
2018-09-11T07:47:56.775Z,9.00
2018-09-11T07:50:25.472Z,11.10
2018-09-11T07:52:54.293Z,8.83
2018-09-11T07:55:22.975Z,7.43
2018-09-11T07:57:51.581Z,7.70
2018-09-11T08:00:20.300Z,8.47
2018-09-11T08:02:48.934Z,13.83
2018-09-11T08:05:17.641Z,7.77
2018-09-11T08:07:46.236Z,14.10
2018-09-11T08:10:14.883Z,11.33
2018-09-11T08:12:43.496Z,9.70
2018-09-11T08:15:12.189Z,8.67
2018-09-11T08:18:08.200Z,7.40
2018-09-11T08:20:36.951Z,8.07
2018-09-11T08:23:05.665Z,7.20
2018-09-11T08:25:34.423Z,6.47
2018-09-11T08:28:03.118Z,8.03
2018-09-11T08:30:32.625Z,9.67
2018-09-11T08:33:02.334Z,9.50
2018-09-11T08:35:31.091Z,8.13
2018-09-11T08:38:00.389Z,8.13
2018-09-11T08:40:29.104Z,9.97
2018-09-11T08:42:57.785Z,8.57
2018-09-11T08:45:26.479Z,6.73
2018-09-11T08:47:55.169Z,9.73
2018-09-11T08:50:23.927Z,12.40
2018-09-11T08:52:52.753Z,7.27
2018-09-11T08:55:21.371Z,10.23
2018-09-11T08:57:50.035Z,9.80
2018-09-11T09:00:18.800Z,9.53
2018-09-11T09:02:47.463Z,10.63
2018-09-11T09:05:16.108Z,9.93
2018-09-11T09:07:44.770Z,7.63
2018-09-11T09:10:13.501Z,8.73
2018-09-11T09:12:42.081Z,6.77
2018-09-11T09:15:10.829Z,8.93
2018-09-11T09:17:39.477Z,8.50
2018-09-11T09:20:08.208Z,8.63
2018-09-11T09:22:36.870Z,7.67
2018-09-11T09:25:06.135Z,7.30
2018-09-11T09:27:34.817Z,7.47
2018-09-11T09:30:05.380Z,8.97
2018-09-11T09:32:33.978Z,10.33
2018-09-11T09:35:02.635Z,10.30
2018-09-11T09:37:31.268Z,8.13
2018-09-11T09:39:59.931Z,6.90
2018-09-11T09:42:28.542Z,6.30
2018-09-11T09:44:57.238Z,8.03
2018-09-11T09:47:25.866Z,10.13
2018-09-11T09:49:54.489Z,9.50
2018-09-11T09:52:24.124Z,10.03
2018-09-11T09:54:52.746Z,8.70
2018-09-11T09:57:21.351Z,8.80
2018-09-11T09:59:49.966Z,8.67
2018-09-11T10:02:23.172Z,14.23
2018-09-11T10:04:52.605Z,7.27
2018-09-11T10:07:22.031Z,6.67
2018-09-11T10:09:50.924Z,8.93
2018-09-11T10:12:19.610Z,8.17
2018-09-11T10:14:48.340Z,8.20
2018-09-11T10:17:16.988Z,7.17
2018-09-11T10:19:45.692Z,12.57
2018-09-11T10:22:14.331Z,6.80
2018-09-11T10:24:42.974Z,8.13
2018-09-11T10:27:12.240Z,9.53
2018-09-11T10:29:40.837Z,8.27
2018-09-11T10:32:09.492Z,6.33
2018-09-11T10:34:38.096Z,8.30
2018-09-11T10:37:07.317Z,7.17
2018-09-11T10:39:35.933Z,7.33
2018-09-11T10:42:04.579Z,6.53
2018-09-11T10:44:33.223Z,9.27
2018-09-11T10:47:01.943Z,8.03
2018-09-11T10:49:30.838Z,8.60
2018-09-11T10:51:59.638Z,8.40
2018-09-11T10:54:28.136Z,8.70
2018-09-11T10:56:56.985Z,8.37
2018-09-11T10:59:25.658Z,6.53
2018-09-11T11:01:54.296Z,8.87
2018-09-11T11:04:23.007Z,8.03
2018-09-11T11:06:51.636Z,9.47
2018-09-11T11:09:20.238Z,9.43
2018-09-11T11:11:48.871Z,9.40
2018-09-11T11:14:17.478Z,7.37
2018-09-11T11:16:46.087Z,9.23
2018-09-11T11:19:14.719Z,7.63
2018-09-11T11:21:43.367Z,6.73
2018-09-11T11:24:12.284Z,8.07
2018-09-11T11:26:40.937Z,8.93
2018-09-11T11:29:09.540Z,8.07
2018-09-11T11:31:38.177Z,9.97
2018-09-11T11:34:07.317Z,9.80
2018-09-11T11:36:36.037Z,9.70
2018-09-11T11:39:06.251Z,7.73
2018-09-11T11:41:34.852Z,8.10
2018-09-11T11:44:03.588Z,7.83
2018-09-11T11:46:32.190Z,7.50
2018-09-11T11:49:00.898Z,7.77
2018-09-11T11:51:29.558Z,7.87
2018-09-11T11:53:58.478Z,4.57
2018-09-11T11:56:27.113Z,6.07
2018-09-11T11:58:55.826Z,4.50
2018-09-11T12:01:24.507Z,4.03
2018-09-11T12:03:53.090Z,6.60
2018-09-11T12:06:21.776Z,5.80
2018-09-11T12:08:50.350Z,4.80
2018-09-11T12:11:19.075Z,7.17
2018-09-11T12:13:47.780Z,6.65
2018-09-11T12:16:16.494Z,5.92
2018-09-11T12:18:45.252Z,4.62
2018-09-11T12:21:13.913Z,7.35
2018-09-11T12:23:42.598Z,6.62
2018-09-11T12:26:11.225Z,13.58
2018-09-11T12:28:39.886Z,7.92
2018-09-11T12:31:08.580Z,5.47
2018-09-11T12:33:37.323Z,5.12
2018-09-11T12:36:06.554Z,8.75
2018-09-11T12:38:35.162Z,8.28
2018-09-11T12:41:03.825Z,7.40
2018-09-11T12:43:32.540Z,5.58
2018-09-11T12:46:01.505Z,5.85
2018-09-11T12:48:30.108Z,4.90
2018-09-11T12:50:58.753Z,7.95
2018-09-11T12:53:27.413Z,4.30
2018-09-11T12:55:56.084Z,4.55
2018-09-11T12:58:24.874Z,5.30
2018-09-11T13:00:53.567Z,6.65
2018-09-11T13:03:22.168Z,4.47
2018-09-11T13:05:50.814Z,5.17
2018-09-11T13:08:19.474Z,5.97
2018-09-11T13:10:48.186Z,6.97
2018-09-11T13:13:16.866Z,5.40
2018-09-11T13:15:45.500Z,5.65
2018-09-11T13:18:14.222Z,6.30
2018-09-11T13:20:42.873Z,6.08
2018-09-11T13:23:11.515Z,7.30
2018-09-11T13:25:40.154Z,8.75
2018-09-11T13:28:08.786Z,5.83
2018-09-11T13:30:37.458Z,4.92
2018-09-11T13:33:06.652Z,5.75
2018-09-11T13:35:35.381Z,10.58
2018-09-11T13:38:04.005Z,7.12
2018-09-11T13:40:32.807Z,6.57
2018-09-11T13:43:01.421Z,5.43
2018-09-11T13:45:30.111Z,7.63
2018-09-11T13:47:58.801Z,6.50
2018-09-11T13:50:27.386Z,7.80
2018-09-11T13:52:56.094Z,4.10
2018-09-11T13:55:24.668Z,5.75
2018-09-11T13:57:53.342Z,6.45
2018-09-11T14:00:21.967Z,6.20
2018-09-11T14:02:50.582Z,3.90
2018-09-11T14:05:19.231Z,7.30
2018-09-11T14:07:47.841Z,5.10
2018-09-11T14:10:16.618Z,5.30
2018-09-11T14:12:45.299Z,4.83
2018-09-11T14:15:13.882Z,6.27
2018-09-11T14:17:42.573Z,4.27
2018-09-11T14:20:11.226Z,4.87
2018-09-11T14:22:39.815Z,5.10
2018-09-11T14:25:08.560Z,7.70
2018-09-11T14:27:37.172Z,4.60
2018-09-11T14:30:07.290Z,6.80
2018-09-11T14:32:35.940Z,4.60
2018-09-11T14:35:04.611Z,7.70
2018-09-11T14:37:33.271Z,10.77
2018-09-11T14:40:01.891Z,7.83
2018-09-11T14:42:30.516Z,8.30
2018-09-11T14:44:59.169Z,9.73
2018-09-11T14:47:33.135Z,8.37
2018-09-11T14:50:01.748Z,7.47
2018-09-11T14:52:30.432Z,7.17
2018-09-11T14:54:59.124Z,6.53
2018-09-11T14:57:27.828Z,6.57
2018-09-11T14:59:56.414Z,9.20
2018-09-11T15:02:25.048Z,9.07
2018-09-11T15:04:53.758Z,6.57
2018-09-11T15:07:22.395Z,6.80
2018-09-11T15:09:51.079Z,6.63
2018-09-11T15:12:19.868Z,9.60
2018-09-11T15:14:48.597Z,7.03
2018-09-11T15:17:18.043Z,6.57
2018-09-11T15:19:46.698Z,10.27
2018-09-11T15:22:15.500Z,7.70
2018-09-11T15:24:44.106Z,9.47
2018-09-11T15:27:12.753Z,11.23
2018-09-11T15:29:41.441Z,9.17
2018-09-11T15:32:10.080Z,7.50
2018-09-11T15:34:38.785Z,6.83
2018-09-11T15:37:07.449Z,7.33
2018-09-11T15:39:36.073Z,7.83
2018-09-11T15:42:04.747Z,6.80
2018-09-11T15:44:33.395Z,6.90
2018-09-11T15:47:02.092Z,6.67
2018-09-11T15:49:30.741Z,10.30
2018-09-11T15:51:59.488Z,6.80
2018-09-11T15:54:28.293Z,6.27
2018-09-11T15:56:56.935Z,7.07
2018-09-11T15:59:25.607Z,7.77
2018-09-11T16:01:54.294Z,7.60
2018-09-11T16:04:22.985Z,7.37
2018-09-11T16:06:51.716Z,8.50
2018-09-11T16:09:20.425Z,6.70
2018-09-11T16:11:49.129Z,9.33
2018-09-11T16:14:18.190Z,7.20
2018-09-11T16:16:46.854Z,9.13
2018-09-11T16:19:16.022Z,9.77
2018-09-11T16:21:44.709Z,10.13
2018-09-11T16:24:13.306Z,7.67
2018-09-11T16:26:41.944Z,10.00
2018-09-11T16:29:10.566Z,8.90
2018-09-11T16:31:39.202Z,7.50
2018-09-11T16:34:07.917Z,9.07
2018-09-11T16:36:36.586Z,7.73
2018-09-11T16:39:07.904Z,9.20
2018-09-11T16:41:36.538Z,7.50
2018-09-11T16:44:05.183Z,12.10
2018-09-11T16:46:33.862Z,8.90
2018-09-11T16:49:02.487Z,9.70
2018-09-11T16:51:31.152Z,12.07
2018-09-11T16:53:59.815Z,13.20
2018-09-11T16:56:28.534Z,9.73
2018-09-11T16:58:57.199Z,9.60
2018-09-11T17:01:25.892Z,16.93
2018-09-11T17:03:54.599Z,10.13
2018-09-11T17:06:23.300Z,13.57
2018-09-11T17:08:52.054Z,8.70
2018-09-11T17:11:20.822Z,13.23
2018-09-11T17:13:49.463Z,8.43
2018-09-11T17:16:18.256Z,11.27
2018-09-11T17:18:46.944Z,12.47
2018-09-11T17:21:15.606Z,13.03
2018-09-11T17:23:44.380Z,13.03
2018-09-11T17:26:13.039Z,11.57
2018-09-11T17:28:41.738Z,10.03
2018-09-11T17:31:10.478Z,11.20
2018-09-11T17:33:39.173Z,13.73
2018-09-11T17:36:07.897Z,8.20
2018-09-11T17:41:18.744Z,8.70
2018-09-11T17:43:47.427Z,8.37
2018-09-11T17:46:16.149Z,10.10
2018-09-11T17:48:44.989Z,10.13
2018-09-11T17:51:13.618Z,7.83
2018-09-11T17:53:42.334Z,10.17
2018-09-11T17:56:10.990Z,13.10
2018-09-11T17:58:39.684Z,8.23
2018-09-11T18:01:08.432Z,10.83
2018-09-11T18:03:37.175Z,11.97
2018-09-11T18:06:05.805Z,11.10
2018-09-11T18:08:34.489Z,9.60
2018-09-11T18:11:03.185Z,7.63
2018-09-11T18:13:31.917Z,7.10
2018-09-11T18:16:00.560Z,8.17
2018-09-11T18:18:29.216Z,8.10
2018-09-11T18:20:57.920Z,9.27
2018-09-11T18:23:26.666Z,7.77
2018-09-11T18:25:55.357Z,10.17
2018-09-11T18:28:23.959Z,8.70
2018-09-11T18:30:52.638Z,10.37
2018-09-11T18:33:21.292Z,7.80
2018-09-11T18:35:49.991Z,9.77
2018-09-11T18:38:18.641Z,6.23
2018-09-11T18:40:47.357Z,10.80
2018-09-11T18:43:16.039Z,6.43
2018-09-11T18:45:44.780Z,7.23
2018-09-11T18:48:13.466Z,7.13
2018-09-11T18:50:42.158Z,7.73
2018-09-11T18:53:10.866Z,6.63
2018-09-11T18:55:39.710Z,6.90
2018-09-11T18:58:08.586Z,6.93
2018-09-11T19:00:37.279Z,6.67
2018-09-11T19:03:06.145Z,7.17
2018-09-11T19:05:34.797Z,15.03
2018-09-11T19:08:03.868Z,6.93
2018-09-11T19:10:32.572Z,6.10
2018-09-11T19:13:01.247Z,8.00
2018-09-11T19:15:29.946Z,11.67
2018-09-11T19:17:58.659Z,6.97
2018-09-11T19:20:27.701Z,8.47
2018-09-11T19:22:56.818Z,6.43
2018-09-11T19:25:25.796Z,6.77
2018-09-11T19:27:54.507Z,8.17
2018-09-11T19:30:23.539Z,7.77
2018-09-11T19:32:52.328Z,21.93
2018-09-11T19:35:20.990Z,7.90
2018-09-11T19:37:49.792Z,10.07
2018-09-11T19:40:18.549Z,10.33
2018-09-11T19:42:47.151Z,8.33
2018-09-11T19:45:15.899Z,7.23
2018-09-11T19:47:44.560Z,6.67
2018-09-11T19:50:13.284Z,6.87
2018-09-11T19:52:42.051Z,7.63
2018-09-11T19:55:10.885Z,8.27
2018-09-11T19:57:39.694Z,7.47
2018-09-11T20:00:11.163Z,6.73
2018-09-11T20:02:39.813Z,9.17
2018-09-11T20:05:08.520Z,6.87
2018-09-11T20:07:37.156Z,7.43
2018-09-11T20:10:05.885Z,6.47
2018-09-11T20:12:34.562Z,8.87
2018-09-11T20:15:03.309Z,7.63
2018-09-11T20:17:32.042Z,7.63
2018-09-11T20:20:00.828Z,7.00
2018-09-11T20:22:29.516Z,6.17
2018-09-11T20:24:58.231Z,7.67
2018-09-11T20:27:26.941Z,6.67
2018-09-11T20:29:55.624Z,6.47
2018-09-11T20:32:24.977Z,6.20
2018-09-11T20:34:53.739Z,6.80
2018-09-11T20:37:22.505Z,7.13
2018-09-11T20:39:51.204Z,8.03
2018-09-11T20:42:19.832Z,5.93
2018-09-11T20:44:48.536Z,6.87
2018-09-11T20:47:17.212Z,6.10
2018-09-11T20:49:46.004Z,9.53
2018-09-11T20:52:14.870Z,8.77
2018-09-11T20:54:43.677Z,6.03
2018-09-11T20:57:12.480Z,7.27
2018-09-11T20:59:41.674Z,6.70
2018-09-11T21:02:10.351Z,8.23
2018-09-11T21:04:39.103Z,6.37
2018-09-11T21:07:07.801Z,8.33
2018-09-11T21:09:36.430Z,6.53
2018-09-11T21:12:05.266Z,10.80
2018-09-11T21:14:33.963Z,8.03
2018-09-11T21:17:02.622Z,6.40
2018-09-11T21:19:31.242Z,6.60
2018-09-11T21:21:59.890Z,6.97
2018-09-11T21:24:28.538Z,6.40
2018-09-11T21:26:57.245Z,6.67
2018-09-11T21:29:25.943Z,7.30
2018-09-11T21:31:54.629Z,6.70
2018-09-11T21:34:23.392Z,7.27
2018-09-11T21:36:52.225Z,6.30
2018-09-11T21:39:20.879Z,7.93
2018-09-11T21:41:49.574Z,6.70
2018-09-11T21:44:18.980Z,7.33
2018-09-11T21:46:47.616Z,7.20
2018-09-11T21:49:16.288Z,7.43
2018-09-11T21:51:45.023Z,8.33
2018-09-11T21:54:13.639Z,7.90
2018-09-11T21:56:42.262Z,7.70
2018-09-11T21:59:11.356Z,7.83
2018-09-11T22:01:45.252Z,7.60
2018-09-11T22:04:13.938Z,9.37
2018-09-11T22:06:42.621Z,7.80
2018-09-11T22:09:12.077Z,11.63
2018-09-11T22:11:41.411Z,7.10
2018-09-11T22:14:10.613Z,7.53
2018-09-11T22:16:40.218Z,7.50
2018-09-11T22:19:08.969Z,7.00
2018-09-11T22:21:38.166Z,7.33
2018-09-11T22:24:06.863Z,7.33
2018-09-11T22:26:35.691Z,8.47
2018-09-11T22:29:04.426Z,6.60
2018-09-11T22:31:33.104Z,8.00
2018-09-11T22:34:02.035Z,7.13
2018-09-11T22:36:30.767Z,10.10
2018-09-11T22:38:59.443Z,7.43
2018-09-11T22:41:28.091Z,9.83
2018-09-11T22:43:56.760Z,6.77
2018-09-11T22:46:25.860Z,6.40
2018-09-11T22:48:54.527Z,6.70
2018-09-11T22:51:23.154Z,8.27
2018-09-11T22:53:51.782Z,9.53
2018-09-11T22:56:20.427Z,7.03
2018-09-11T22:58:49.034Z,6.70
2018-09-11T23:01:17.671Z,7.97
2018-09-11T23:03:46.326Z,7.13
2018-09-11T23:06:15.038Z,7.03
2018-09-11T23:08:43.708Z,7.37
2018-09-11T23:11:12.364Z,6.37
2018-09-11T23:13:41.011Z,7.07
2018-09-11T23:16:09.763Z,8.10
2018-09-11T23:18:38.424Z,7.43
2018-09-11T23:21:07.243Z,7.60
2018-09-11T23:23:35.890Z,8.93
2018-09-11T23:26:04.591Z,8.97
2018-09-11T23:28:33.222Z,7.37
2018-09-11T23:31:01.955Z,7.20
2018-09-11T23:33:30.587Z,7.40
2018-09-11T23:35:59.206Z,7.07
2018-09-11T23:38:27.861Z,7.37
2018-09-11T23:40:56.502Z,7.30
2018-09-11T23:43:25.249Z,6.20
2018-09-11T23:45:54.094Z,6.70
2018-09-11T23:48:22.773Z,6.10
2018-09-11T23:50:51.378Z,6.30
2018-09-11T23:53:19.992Z,7.47
2018-09-11T23:55:48.694Z,6.77
2018-09-11T23:58:17.358Z,6.77
